Time;durP1;ratioP1;P1;durP2;ratioP2;P2;SDS_P1;SDS_P2;PMS_P1;PMS_P2;Temp;Humidity;BMP_temperature;BMP_pressure;BME280_temperature;BME280_humidity;BME280_pressure;Samples;Min_cycle;Max_cycle;Signal;HPM_P1;HPM_P2
2022/11/24 00:03:20;;;;;;;4.50;4.07;;;;;;;;;;10498269;28;20217;-69
2022/11/24 00:08:21;;;;;;;4.32;3.78;;;;;;;;;;10493696;28;20591;-70
2022/11/24 00:13:22;;;;;;;6.63;3.63;;;;;;;;;;10498322;28;20225;-69
2022/11/24 00:18:23;;;;;;;6.63;3.42;;;;;;;;;;10483845;28;20202;-69
2022/11/24 00:23:25;;;;;;;8.27;4.10;;;;;;;;;;10495028;28;20233;-69
2022/11/24 00:28:26;;;;;;;5.18;4.03;;;;;;;;;;10501089;28;20647;-70
2022/11/24 00:33:27;;;;;;;4.80;4.03;;;;;;;;;;10486543;28;20225;-68
2022/11/24 00:38:29;;;;;;;6.15;4.13;;;;;;;;;;10495305;28;20251;-69
2022/11/24 00:43:30;;;;;;;8.52;3.83;;;;;;;;;;10479344;28;20304;-69
2022/11/24 00:48:31;;;;;;;8.27;3.72;;;;;;;;;;10487784;28;20296;-69
2022/11/24 00:53:32;;;;;;;5.22;4.20;;;;;;;;;;10495449;28;20214;-69
2022/11/24 00:58:34;;;;;;;3.70;3.03;;;;;;;;;;10491708;28;20202;-69
2022/11/24 01:03:35;;;;;;;7.72;4.13;;;;;;;;;;10497640;28;20210;-69
2022/11/24 01:08:37;;;;;;;4.80;3.20;;;;;;;;;;10497690;28;20213;-69
2022/11/24 01:13:39;;;;;;;4.95;3.88;;;;;;;;;;10496307;28;20749;-69
2022/11/24 01:18:40;;;;;;;4.35;2.97;;;;;;;;;;10503825;28;20210;-69
2022/11/24 01:23:42;;;;;;;11.93;4.35;;;;;;;;;;10504657;28;20994;-69
2022/11/24 01:28:43;;;;;;;4.03;3.20;;;;;;;;;;10492289;28;20217;-69
2022/11/24 01:33:44;;;;;;;6.13;4.00;;;;;;;;;;10495732;28;20249;-70
2022/11/24 01:38:45;;;;;;;5.30;3.45;;;;;;;;;;10487469;28;20214;-70
2022/11/24 01:43:47;;;;;;;3.92;3.40;;;;;;;;;;10505919;28;20224;-68
2022/11/24 01:49:01;;;;;;;8.68;4.05;;;;;;;;;;10498975;28;20224;-67
2022/11/24 01:54:05;;;;;;;8.52;3.92;;;;;;;;;;10491286;28;20218;-71
2022/11/24 01:59:08;;;;;;;3.80;3.42;;;;;;;;;;10502475;28;20230;-67
2022/11/24 02:04:12;;;;;;;5.32;3.97;;;;;;;;;;10484330;28;20213;-68
2022/11/24 02:09:21;;;;;;;7.03;3.85;;;;;;;;;;10499471;28;20222;-68
2022/11/24 02:14:24;;;;;;;4.75;4.28;;;;;;;;;;10507197;28;20206;-70
2022/11/24 02:19:25;;;;;;;3.85;3.55;;;;;;;;;;10502305;28;20240;-71
2022/11/24 02:24:37;;;;;;;6.10;3.60;;;;;;;;;;10491582;28;20214;-71
2022/11/24 02:29:39;;;;;;;5.70;3.45;;;;;;;;;;10501465;28;20240;-70
2022/11/24 02:34:41;;;;;;;2.70;2.47;;;;;;;;;;10487661;28;20209;-71
2022/11/24 02:39:42;;;;;;;7.32;3.58;;;;;;;;;;10499727;28;20212;-70
2022/11/24 02:44:46;;;;;;;3.83;3.45;;;;;;;;;;10483121;28;20588;-71
2022/11/24 02:49:47;;;;;;;3.30;3.03;;;;;;;;;;10499296;28;20328;-71
2022/11/24 02:54:48;;;;;;;4.13;3.72;;;;;;;;;;10481415;28;20245;-71
2022/11/24 02:59:49;;;;;;;3.25;3.00;;;;;;;;;;10485253;28;20301;-71
2022/11/24 03:04:50;;;;;;;2.60;2.50;;;;;;;;;;10500982;28;20209;-71
2022/11/24 03:09:51;;;;;;;3.42;2.75;;;;;;;;;;10493631;28;20213;-71
2022/11/24 03:14:52;;;;;;;3.72;3.15;;;;;;;;;;10499459;28;20210;-72
2022/11/24 03:19:54;;;;;;;2.83;2.63;;;;;;;;;;10498974;28;20224;-72
2022/11/24 03:24:55;;;;;;;4.28;3.80;;;;;;;;;;10497518;28;20605;-72
2022/11/24 03:29:56;;;;;;;6.97;4.03;;;;;;;;;;10482432;28;20228;-73
2022/11/24 03:34:57;;;;;;;6.72;3.50;;;;;;;;;;10489064;28;20636;-73
2022/11/24 03:39:58;;;;;;;4.82;3.35;;;;;;;;;;10484282;28;20252;-73
2022/11/24 03:44:59;;;;;;;6.55;3.22;;;;;;;;;;10497387;28;20236;-71
2022/11/24 03:50:00;;;;;;;4.05;3.10;;;;;;;;;;10499269;28;20868;-70
2022/11/24 03:55:01;;;;;;;3.67;3.05;;;;;;;;;;10484435;28;20214;-70
2022/11/24 04:00:05;;;;;;;3.70;2.95;;;;;;;;;;10487633;28;20196;-69
2022/11/24 04:05:06;;;;;;;3.92;3.47;;;;;;;;;;10503100;28;20698;-69
2022/11/24 04:10:07;;;;;;;3.25;3.03;;;;;;;;;;10485765;28;20178;-69
2022/11/24 04:15:09;;;;;;;3.35;3.08;;;;;;;;;;10481930;28;20202;-70
2022/11/24 04:20:11;;;;;;;5.00;3.50;;;;;;;;;;10486743;28;20267;-67
2022/11/24 04:25:12;;;;;;;5.72;3.20;;;;;;;;;;10458933;28;20194;-69
2022/11/24 04:30:13;;;;;;;7.55;3.92;;;;;;;;;;10438457;28;20640;-70
2022/11/24 04:35:14;;;;;;;8.18;3.53;;;;;;;;;;10441933;28;20305;-72
2022/11/24 04:40:16;;;;;;;5.88;4.15;;;;;;;;;;10445924;28;20247;-72
2022/11/24 04:45:17;;;;;;;4.32;3.92;;;;;;;;;;10454863;28;20201;-72
2022/11/24 04:50:19;;;;;;;3.83;3.47;;;;;;;;;;10440764;28;20228;-70
2022/11/24 04:55:20;;;;;;;7.90;4.10;;;;;;;;;;10436048;28;20202;-71
2022/11/24 05:00:21;;;;;;;7.55;4.60;;;;;;;;;;10454801;28;20214;-70
2022/11/24 05:05:22;;;;;;;6.72;3.90;;;;;;;;;;10461329;28;22101;-69
2022/11/24 05:10:36;;;;;;;6.70;3.78;;;;;;;;;;10444968;28;20212;-71
2022/11/24 05:15:38;;;;;;;5.95;4.10;;;;;;;;;;10453445;28;20283;-71
2022/11/24 05:20:39;;;;;;;6.70;4.28;;;;;;;;;;10465251;28;20667;-71
2022/11/24 05:25:40;;;;;;;4.35;3.95;;;;;;;;;;10497751;28;20214;-70
2022/11/24 05:30:41;;;;;;;6.28;4.43;;;;;;;;;;10497795;28;20209;-72
2022/11/24 05:35:42;;;;;;;5.18;4.25;;;;;;;;;;10500262;28;20205;-72
2022/11/24 05:40:44;;;;;;;7.55;4.43;;;;;;;;;;10489170;28;20232;-72
2022/11/24 05:45:45;;;;;;;7.68;4.45;;;;;;;;;;10490854;28;20305;-72
2022/11/24 05:50:52;;;;;;;7.22;4.18;;;;;;;;;;10486246;28;20264;-72
2022/11/24 05:55:53;;;;;;;4.93;3.80;;;;;;;;;;10488756;28;20201;-71
2022/11/24 06:00:54;;;;;;;4.95;3.80;;;;;;;;;;10506181;28;20210;-70
2022/11/24 06:05:56;;;;;;;7.00;4.97;;;;;;;;;;10494517;28;20217;-71
2022/11/24 06:11:34;;;;;;;6.85;4.70;;;;;;;;;;10500769;28;20221;-71
2022/11/24 06:16:28;;;;;;;6.68;5.38;;;;;;;;;;10492934;28;20673;-71
2022/11/24 06:21:30;;;;;;;7.63;4.93;;;;;;;;;;10504549;28;20214;-71
2022/11/24 06:26:31;;;;;;;4.68;4.28;;;;;;;;;;10485477;28;20221;-70
2022/11/24 06:31:33;;;;;;;6.10;4.72;;;;;;;;;;10493578;28;20697;-71
2022/11/24 06:36:34;;;;;;;8.30;4.35;;;;;;;;;;10493319;28;20206;-71
2022/11/24 06:41:35;;;;;;;7.45;5.82;;;;;;;;;;10481400;28;20224;-70
2022/11/24 06:46:36;;;;;;;7.78;4.72;;;;;;;;;;10481558;28;20299;-70
2022/11/24 06:51:37;;;;;;;9.77;5.50;;;;;;;;;;10467112;28;20217;-69
2022/11/24 06:56:38;;;;;;;8.85;5.10;;;;;;;;;;10474830;28;20281;-70
2022/11/24 07:01:39;;;;;;;6.93;5.15;;;;;;;;;;10507214;28;20206;-70
2022/11/24 07:06:41;;;;;;;9.60;5.90;;;;;;;;;;10485710;28;20241;-70
2022/11/24 07:11:42;;;;;;;10.40;5.03;;;;;;;;;;10487313;28;20209;-70
2022/11/24 07:16:43;;;;;;;7.53;5.10;;;;;;;;;;10482985;28;20240;-70
2022/11/24 07:21:44;;;;;;;7.40;4.85;;;;;;;;;;10499095;28;20224;-70
2022/11/24 07:26:45;;;;;;;5.63;4.45;;;;;;;;;;10487763;28;20313;-69
2022/11/24 07:31:46;;;;;;;6.95;5.22;;;;;;;;;;10494146;28;21133;-70
2022/11/24 07:36:48;;;;;;;11.02;5.60;;;;;;;;;;10501369;28;20712;-70
2022/11/24 07:41:50;;;;;;;11.13;5.68;;;;;;;;;;10490111;28;20214;-70
2022/11/24 07:46:51;;;;;;;7.72;5.32;;;;;;;;;;10488134;28;20214;-70
2022/11/24 07:51:52;;;;;;;12.65;6.60;;;;;;;;;;10498548;28;20313;-70
2022/11/24 07:56:54;;;;;;;9.98;5.82;;;;;;;;;;10502190;28;20206;-70
2022/11/24 08:01:55;;;;;;;8.13;6.13;;;;;;;;;;10503505;28;20301;-70
2022/11/24 08:06:56;;;;;;;9.63;5.35;;;;;;;;;;10505680;28;20210;-68
2022/11/24 08:11:57;;;;;;;10.95;6.22;;;;;;;;;;10496977;28;20213;-68
2022/11/24 08:16:58;;;;;;;20.10;6.47;;;;;;;;;;10500378;28;20588;-70
2022/11/24 08:22:00;;;;;;;15.15;6.78;;;;;;;;;;10498378;28;20217;-70
2022/11/24 08:27:01;;;;;;;10.07;6.00;;;;;;;;;;10502190;28;20221;-69
2022/11/24 08:32:02;;;;;;;9.23;7.30;;;;;;;;;;10497878;28;20221;-69
2022/11/24 08:37:04;;;;;;;10.48;6.45;;;;;;;;;;10496742;28;20292;-69
2022/11/24 08:42:05;;;;;;;9.50;6.90;;;;;;;;;;10497762;28;20249;-69
2022/11/24 08:47:06;;;;;;;11.00;6.88;;;;;;;;;;10490709;28;20754;-69
2022/11/24 08:52:07;;;;;;;13.15;7.15;;;;;;;;;;10481645;28;20220;-69
2022/11/24 08:57:08;;;;;;;10.30;6.28;;;;;;;;;;10494546;28;20296;-69
2022/11/24 09:02:11;;;;;;;14.00;6.60;;;;;;;;;;10487439;28;20313;-71
2022/11/24 09:07:12;;;;;;;13.50;6.70;;;;;;;;;;10502293;28;20216;-69
2022/11/24 09:12:13;;;;;;;8.05;6.65;;;;;;;;;;10502044;28;20221;-68
2022/11/24 09:17:14;;;;;;;11.15;6.03;;;;;;;;;;10501743;28;20210;-69
2022/11/24 09:22:18;;;;;;;8.95;6.22;;;;;;;;;;10493793;28;20608;-69
2022/11/24 09:27:19;;;;;;;10.45;5.68;;;;;;;;;;10478322;28;20300;-69
2022/11/24 09:32:20;;;;;;;5.95;5.40;;;;;;;;;;10499692;28;20653;-69
2022/11/24 09:37:21;;;;;;;7.25;6.05;;;;;;;;;;10487660;28;20224;-69
2022/11/24 09:42:30;;;;;;;14.10;6.28;;;;;;;;;;10506771;28;20593;-69
2022/11/24 09:47:49;;;;;;;14.90;5.80;;;;;;;;;;10492983;28;20228;-69
2022/11/24 09:53:02;;;;;;;4.78;4.30;;;;;;;;;;10505713;28;20317;-69
2022/11/24 09:58:10;;;;;;;8.25;4.97;;;;;;;;;;10496402;28;20214;-69
2022/11/24 10:03:26;;;;;;;12.07;4.40;;;;;;;;;;10496532;28;20785;-68
2022/11/24 10:08:37;;;;;;;10.00;5.00;;;;;;;;;;10492320;28;20240;-69
2022/11/24 10:13:52;;;;;;;6.15;4.20;;;;;;;;;;10501610;28;20222;-69
2022/11/24 10:18:58;;;;;;;10.07;4.93;;;;;;;;;;10488863;28;20637;-69
2022/11/24 10:24:08;;;;;;;5.20;4.78;;;;;;;;;;10509377;28;20262;-69
2022/11/24 10:29:25;;;;;;;7.20;4.78;;;;;;;;;;10507018;28;20308;-69
2022/11/24 10:34:33;;;;;;;7.60;4.55;;;;;;;;;;10499779;28;20989;-69
2022/11/24 10:39:40;;;;;;;7.20;4.30;;;;;;;;;;10501037;28;20213;-69
2022/11/24 10:44:42;;;;;;;8.80;4.38;;;;;;;;;;10506571;28;20224;-69
2022/11/24 10:49:46;;;;;;;5.50;4.30;;;;;;;;;;10489462;28;20300;-70
2022/11/24 10:54:55;;;;;;;5.80;3.70;;;;;;;;;;10491346;28;20252;-69
2022/11/24 10:59:56;;;;;;;8.18;4.88;;;;;;;;;;10503918;28;20228;-69
2022/11/24 11:04:57;;;;;;;7.45;4.20;;;;;;;;;;10494490;28;20210;-70
2022/11/24 11:10:17;;;;;;;5.13;4.18;;;;;;;;;;10500831;28;20216;-69
2022/11/24 11:15:26;;;;;;;8.10;5.80;;;;;;;;;;10497428;28;20591;-70
2022/11/24 11:20:30;;;;;;;9.98;5.00;;;;;;;;;;10469446;28;20584;-68
2022/11/24 11:25:32;;;;;;;11.45;5.25;;;;;;;;;;10482172;28;20319;-68
2022/11/24 11:30:34;;;;;;;4.63;3.60;;;;;;;;;;10496688;28;20300;-69
2022/11/24 11:35:36;;;;;;;6.57;3.10;;;;;;;;;;10481144;28;20284;-69
2022/11/24 11:40:41;;;;;;;5.45;3.33;;;;;;;;;;10501212;28;20693;-69
2022/11/24 11:45:46;;;;;;;6.22;2.83;;;;;;;;;;10499981;28;20217;-69
2022/11/24 11:50:52;;;;;;;2.75;1.92;;;;;;;;;;10502493;28;20212;-69
2022/11/24 11:56:12;;;;;;;6.80;2.28;;;;;;;;;;10502529;28;20201;-69
2022/11/24 12:01:31;;;;;;;6.68;2.05;;;;;;;;;;10498842;28;20693;-68
2022/11/24 12:06:41;;;;;;;2.90;2.67;;;;;;;;;;10502684;28;20581;-69
2022/11/24 12:11:42;;;;;;;7.55;2.88;;;;;;;;;;10478906;28;20214;-73
2022/11/24 12:16:48;;;;;;;3.15;2.72;;;;;;;;;;10478880;28;20698;-70
2022/11/24 12:22:02;;;;;;;7.53;2.35;;;;;;;;;;10498993;28;20233;-73
2022/11/24 12:27:22;;;;;;;5.93;2.13;;;;;;;;;;10481592;28;20206;-73
2022/11/24 12:32:23;;;;;;;5.38;1.60;;;;;;;;;;10497009;28;20205;-74
2022/11/24 12:37:30;;;;;;;5.07;2.00;;;;;;;;;;10496329;28;20281;-75
2022/11/24 12:42:57;;;;;;;2.85;1.42;;;;;;;;;;10480520;28;20209;-73
2022/11/24 12:48:10;;;;;;;6.05;1.88;;;;;;;;;;10485729;28;20216;-76
2022/11/24 12:53:16;;;;;;;7.28;2.25;;;;;;;;;;10506987;28;20218;-75
2022/11/24 12:58:35;;;;;;;8.88;1.65;;;;;;;;;;10502642;28;20684;-74
2022/11/24 13:03:45;;;;;;;4.28;1.38;;;;;;;;;;10503717;28;20204;-76
2022/11/24 13:08:47;;;;;;;4.53;0.98;;;;;;;;;;10498155;28;20209;-75
2022/11/24 13:13:58;;;;;;;3.25;1.10;;;;;;;;;;10508204;28;20224;-73
2022/11/24 13:19:01;;;;;;;4.63;1.40;;;;;;;;;;10502114;28;20209;-73
2022/11/24 13:24:04;;;;;;;5.75;2.63;;;;;;;;;;10454323;28;20252;-72
2022/11/24 13:29:05;;;;;;;7.05;3.72;;;;;;;;;;10465792;28;20214;-73
2022/11/24 13:34:25;;;;;;;15.57;5.82;;;;;;;;;;10472054;28;20593;-71
2022/11/24 13:39:46;;;;;;;8.90;3.50;;;;;;;;;;10446758;28;20984;-72
2022/11/24 13:44:48;;;;;;;4.38;1.85;;;;;;;;;;10463271;28;20245;-72
2022/11/24 13:49:49;;;;;;;4.70;1.65;;;;;;;;;;10459060;28;20927;-72
2022/11/24 13:54:51;;;;;;;4.80;1.55;;;;;;;;;;10456856;28;21046;-72
2022/11/24 13:59:59;;;;;;;4.13;2.15;;;;;;;;;;10463148;28;20218;-72
2022/11/24 14:05:01;;;;;;;10.30;3.35;;;;;;;;;;10466917;28;20305;-74
2022/11/24 14:10:02;;;;;;;6.97;2.72;;;;;;;;;;10466613;28;20285;-75
2022/11/24 14:15:19;;;;;;;7.05;3.38;;;;;;;;;;10465806;28;21035;-74
2022/11/24 14:20:24;;;;;;;2.75;2.22;;;;;;;;;;10461462;28;20271;-74
2022/11/24 14:25:28;;;;;;;4.65;1.60;;;;;;;;;;10487683;28;20254;-72
2022/11/24 14:30:31;;;;;;;5.85;3.35;;;;;;;;;;10486494;28;20228;-73
2022/11/24 14:35:33;;;;;;;12.65;7.07;;;;;;;;;;10507958;28;20236;-73
2022/11/24 14:40:48;;;;;;;13.02;8.25;;;;;;;;;;10491060;28;20379;-73
2022/11/24 14:46:09;;;;;;;5.03;3.58;;;;;;;;;;10505249;28;20209;-73
2022/11/24 14:51:10;;;;;;;4.47;4.05;;;;;;;;;;10507379;28;20213;-74
2022/11/24 14:56:20;;;;;;;5.30;3.33;;;;;;;;;;10502989;28;20206;-73
2022/11/24 15:01:34;;;;;;;6.85;3.00;;;;;;;;;;10508054;28;20606;-74
2022/11/24 15:06:36;;;;;;;6.25;3.22;;;;;;;;;;10502666;28;20213;-74
2022/11/24 15:11:37;;;;;;;2.78;2.35;;;;;;;;;;10487071;28;20218;-73
2022/11/24 15:16:39;;;;;;;2.75;2.60;;;;;;;;;;10505386;28;20256;-73
2022/11/24 15:21:40;;;;;;;7.82;3.00;;;;;;;;;;10505560;28;20341;-74
2022/11/24 15:26:41;;;;;;;5.72;3.10;;;;;;;;;;10499151;28;20209;-74
2022/11/24 15:31:42;;;;;;;3.75;2.75;;;;;;;;;;10501716;28;20241;-71
2022/11/24 15:36:43;;;;;;;4.28;3.10;;;;;;;;;;10496673;28;20212;-73
2022/11/24 15:41:44;;;;;;;5.20;3.78;;;;;;;;;;10484965;28;20251;-72
2022/11/24 15:46:45;;;;;;;6.80;3.33;;;;;;;;;;10498464;28;20382;-74
2022/11/24 15:51:47;;;;;;;3.42;3.17;;;;;;;;;;10506063;28;20310;-73
2022/11/24 15:56:48;;;;;;;6.18;2.70;;;;;;;;;;10492969;28;20711;-74
2022/11/24 16:01:49;;;;;;;6.47;2.75;;;;;;;;;;10490640;28;20214;-74
2022/11/24 16:06:51;;;;;;;6.78;3.17;;;;;;;;;;10504483;28;20217;-76
2022/11/24 16:11:52;;;;;;;5.50;2.88;;;;;;;;;;10500079;28;20206;-76
2022/11/24 16:16:53;;;;;;;9.70;5.47;;;;;;;;;;10494787;28;20206;-74
2022/11/24 16:21:54;;;;;;;16.50;8.63;;;;;;;;;;10497886;28;20228;-74
2022/11/24 16:26:55;;;;;;;31.50;14.32;;;;;;;;;;10496492;28;20221;-75
2022/11/24 16:31:56;;;;;;;42.75;21.25;;;;;;;;;;10495483;28;20222;-73
2022/11/24 16:36:57;;;;;;;50.00;23.48;;;;;;;;;;10486717;28;20749;-72
2022/11/24 16:41:58;;;;;;;38.67;16.83;;;;;;;;;;10482311;28;20308;-74
2022/11/24 16:47:00;;;;;;;26.02;15.18;;;;;;;;;;10498514;28;20712;-73
2022/11/24 16:52:01;;;;;;;27.05;13.82;;;;;;;;;;10491585;28;20704;-73
2022/11/24 16:57:02;;;;;;;25.65;13.77;;;;;;;;;;10497401;28;20213;-73
2022/11/24 17:02:04;;;;;;;27.55;12.15;;;;;;;;;;10499027;28;20219;-74
2022/11/24 17:07:05;;;;;;;23.45;12.40;;;;;;;;;;10479452;28;20233;-72
2022/11/24 17:12:06;;;;;;;22.33;11.88;;;;;;;;;;10502974;28;20217;-75
2022/11/24 17:17:07;;;;;;;24.00;12.77;;;;;;;;;;10494293;28;20217;-75
2022/11/24 17:22:08;;;;;;;22.45;11.77;;;;;;;;;;10496765;28;20764;-75
2022/11/24 17:27:09;;;;;;;21.67;12.10;;;;;;;;;;10500200;28;20213;-75
2022/11/24 17:32:11;;;;;;;22.92;12.65;;;;;;;;;;10491833;28;20700;-74
2022/11/24 17:37:12;;;;;;;20.98;11.55;;;;;;;;;;10479566;28;20309;-70
2022/11/24 17:42:13;;;;;;;21.90;11.20;;;;;;;;;;10492841;28;20210;-75
2022/11/24 17:47:14;;;;;;;22.02;10.82;;;;;;;;;;10487001;28;20299;-75
2022/11/24 17:52:17;;;;;;;18.35;10.85;;;;;;;;;;10501303;28;20904;-75
2022/11/24 17:57:18;;;;;;;21.38;10.02;;;;;;;;;;10488640;28;20224;-74
2022/11/24 18:02:19;;;;;;;19.60;10.18;;;;;;;;;;10507024;28;20202;-74
2022/11/24 18:07:20;;;;;;;18.48;11.23;;;;;;;;;;10497407;28;20258;-74
2022/11/24 18:12:21;;;;;;;20.45;10.80;;;;;;;;;;10502307;28;20213;-74
2022/11/24 18:17:22;;;;;;;16.77;8.85;;;;;;;;;;10504600;28;20216;-75
2022/11/24 18:22:23;;;;;;;14.75;9.35;;;;;;;;;;10494508;28;20210;-76
2022/11/24 18:27:24;;;;;;;17.52;9.68;;;;;;;;;;10486776;28;20212;-74
2022/11/24 18:32:26;;;;;;;14.32;7.90;;;;;;;;;;10497027;28;20246;-75
2022/11/24 18:37:31;;;;;;;11.38;7.75;;;;;;;;;;10499096;28;20666;-72
2022/11/24 18:42:32;;;;;;;9.02;6.90;;;;;;;;;;10491542;28;20297;-73
2022/11/24 18:47:33;;;;;;;11.93;7.80;;;;;;;;;;10493336;28;20835;-75
2022/11/24 18:52:34;;;;;;;12.73;8.23;;;;;;;;;;10496071;28;20339;-70
2022/11/24 18:57:35;;;;;;;8.95;6.60;;;;;;;;;;10499214;28;20266;-72
2022/11/24 19:02:36;;;;;;;12.50;8.68;;;;;;;;;;10496409;28;20329;-74
2022/11/24 19:07:37;;;;;;;10.32;7.43;;;;;;;;;;10498282;28;20651;-75
2022/11/24 19:12:38;;;;;;;13.27;7.72;;;;;;;;;;10501253;28;20217;-73
2022/11/24 19:17:39;;;;;;;13.18;7.65;;;;;;;;;;10483600;28;20292;-74
2022/11/24 19:22:41;;;;;;;9.48;7.15;;;;;;;;;;10494206;28;20224;-75
2022/11/24 19:27:42;;;;;;;9.23;7.60;;;;;;;;;;10495561;28;20217;-72
2022/11/24 19:32:43;;;;;;;9.68;7.45;;;;;;;;;;10494143;28;20222;-72
2022/11/24 19:37:44;;;;;;;9.85;6.80;;;;;;;;;;10496262;28;20209;-73
2022/11/24 19:42:45;;;;;;;8.52;5.57;;;;;;;;;;10495958;28;20221;-75
2022/11/24 19:47:46;;;;;;;7.80;4.75;;;;;;;;;;10479081;28;20972;-73
2022/11/24 19:52:48;;;;;;;4.45;3.75;;;;;;;;;;10493832;28;20209;-74
2022/11/24 19:57:49;;;;;;;5.38;4.82;;;;;;;;;;10496205;28;21038;-72
2022/11/24 20:02:50;;;;;;;7.00;4.10;;;;;;;;;;10494105;28;20286;-73
2022/11/24 20:07:51;;;;;;;5.85;4.40;;;;;;;;;;10475781;28;20229;-72
2022/11/24 20:12:52;;;;;;;4.57;4.25;;;;;;;;;;10477226;28;20231;-73
2022/11/24 20:17:53;;;;;;;5.68;5.00;;;;;;;;;;10488740;28;20205;-74
2022/11/24 20:22:54;;;;;;;4.72;4.07;;;;;;;;;;10492957;28;20213;-74
2022/11/24 20:27:55;;;;;;;4.22;3.83;;;;;;;;;;10474162;28;20582;-76
2022/11/24 20:32:56;;;;;;;7.10;4.25;;;;;;;;;;10491756;28;20214;-72
2022/11/24 20:37:57;;;;;;;9.90;7.10;;;;;;;;;;10495724;28;20707;-72
2022/11/24 20:42:58;;;;;;;12.45;8.88;;;;;;;;;;10495333;28;20263;-75
2022/11/24 20:47:59;;;;;;;8.80;7.25;;;;;;;;;;10495695;28;20253;-74
2022/11/24 20:53:01;;;;;;;4.30;3.90;;;;;;;;;;10494254;28;20241;-74
2022/11/24 20:58:02;;;;;;;5.28;4.78;;;;;;;;;;10472871;28;20201;-74
2022/11/24 21:03:03;;;;;;;6.18;4.30;;;;;;;;;;10495233;28;20236;-74
2022/11/24 21:08:04;;;;;;;6.82;5.05;;;;;;;;;;10471173;28;20205;-74
2022/11/24 21:13:05;;;;;;;9.52;6.07;;;;;;;;;;10492931;28;20609;-74
2022/11/24 21:18:06;;;;;;;8.48;5.70;;;;;;;;;;10497378;28;20222;-74
2022/11/24 21:23:07;;;;;;;7.32;6.00;;;;;;;;;;10497079;28;20261;-74
2022/11/24 21:28:09;;;;;;;10.05;6.57;;;;;;;;;;10499675;28;20270;-74
2022/11/24 21:33:10;;;;;;;7.78;6.30;;;;;;;;;;10502312;28;20260;-74
2022/11/24 21:38:11;;;;;;;13.40;7.88;;;;;;;;;;10488243;28;20735;-74
2022/11/24 21:43:12;;;;;;;8.18;6.72;;;;;;;;;;10503474;28;20216;-74
2022/11/24 21:48:13;;;;;;;9.60;7.68;;;;;;;;;;10492371;28;20205;-73
2022/11/24 21:53:15;;;;;;;11.40;8.18;;;;;;;;;;10503499;28;20222;-74
2022/11/24 21:58:16;;;;;;;11.43;8.65;;;;;;;;;;10508245;28;20220;-74
2022/11/24 22:03:17;;;;;;;9.82;7.57;;;;;;;;;;10489806;28;20355;-74
2022/11/24 22:08:18;;;;;;;10.30;8.02;;;;;;;;;;10499864;28;20292;-74
2022/11/24 22:13:19;;;;;;;11.20;7.50;;;;;;;;;;10503673;28;20258;-74
2022/11/24 22:18:20;;;;;;;9.75;8.15;;;;;;;;;;10504428;28;20300;-74
2022/11/24 22:23:22;;;;;;;9.93;7.70;;;;;;;;;;10499320;28;20213;-73
2022/11/24 22:28:23;;;;;;;13.95;7.75;;;;;;;;;;10490600;28;20263;-74
2022/11/24 22:33:24;;;;;;;10.68;7.45;;;;;;;;;;10501503;28;20244;-74
2022/11/24 22:38:25;;;;;;;10.15;7.30;;;;;;;;;;10490202;28;20210;-74
2022/11/24 22:43:26;;;;;;;10.27;6.57;;;;;;;;;;10506895;28;20221;-74
2022/11/24 22:48:27;;;;;;;8.65;6.20;;;;;;;;;;10505709;28;20720;-73
2022/11/24 22:53:28;;;;;;;6.15;5.47;;;;;;;;;;10507902;28;20217;-74
2022/11/24 22:58:31;;;;;;;10.30;5.57;;;;;;;;;;10507542;28;20304;-74
2022/11/24 23:03:33;;;;;;;6.13;5.43;;;;;;;;;;10509345;28;20225;-72
2022/11/24 23:08:35;;;;;;;7.85;5.93;;;;;;;;;;10502610;28;20716;-74
2022/11/24 23:13:36;;;;;;;8.52;5.43;;;;;;;;;;10495860;28;20719;-74
2022/11/24 23:18:37;;;;;;;8.45;5.90;;;;;;;;;;10487117;28;20206;-74
2022/11/24 23:23:39;;;;;;;7.43;6.03;;;;;;;;;;10497144;28;20725;-74
2022/11/24 23:28:41;;;;;;;6.90;5.90;;;;;;;;;;10500273;28;20293;-73
2022/11/24 23:33:43;;;;;;;7.90;5.85;;;;;;;;;;10499891;28;20249;-74
2022/11/24 23:38:44;;;;;;;7.30;5.75;;;;;;;;;;10502371;28;20208;-74
2022/11/24 23:43:45;;;;;;;6.78;5.45;;;;;;;;;;10504204;28;20217;-75
2022/11/24 23:48:47;;;;;;;6.97;6.00;;;;;;;;;;10503569;28;20255;-74
2022/11/24 23:53:49;;;;;;;7.40;5.88;;;;;;;;;;10495899;28;20252;-74
2022/11/24 23:58:50;;;;;;;8.40;6.15;;;;;;;;;;10505215;28;20224;-74
